WMT5PL LHBP-LIMC
Flight info
| Callsign | WMT5PL |
|---|---|
| Flight time | 1h 16m |
| Altitude | 38000 |
| Route | GILEP DCT ZOLKU DCT SUNIS DCT DETSA/N0447F370 DCT NAXAV DCT RENTA DCT ATPED DCT LUSIL DCT EVRIP |
| Aircraft | A321/M-SDE1E2E3FGIJ1J4RWXY/LB1 |
Departure
| Time | 2026-05-04 15:11 |
|---|---|
| Airport | Budapest Liszt Ferenc International Airport (LHBP) |
Arrival
| Time | 2026-05-04 16:27 |
|---|---|
| Airport | Milan Malpensa International Airport (LIMC) |
| Time | Latitude | Longitude | Altitude | Speed | Heading |
|---|---|---|---|---|---|
| 2026-05-04 14:53 | 47.43424 | 19.26618 | 458 ft | 0 kts | 222° |
| 2026-05-04 15:03 | 47.43426 | 19.26620 | 458 ft | 2 kts | 222° |
| 2026-05-04 15:03 | 47.43443 | 19.26643 | 456 ft | 3 kts | 223° |
| 2026-05-04 15:04 | 47.43454 | 19.26669 | 458 ft | 4 kts | 281° |
| 2026-05-04 15:04 | 47.43444 | 19.26703 | 454 ft | 4 kts | 306° |
| 2026-05-04 15:04 | 47.43427 | 19.26734 | 456 ft | 4 kts | 312° |
| 2026-05-04 15:04 | 47.43423 | 19.26741 | 455 ft | 0 kts | 312° |
| 2026-05-04 15:06 | 47.43429 | 19.26731 | 457 ft | 3 kts | 313° |
| 2026-05-04 15:07 | 47.43475 | 19.26658 | 458 ft | 7 kts | 313° |
| 2026-05-04 15:07 | 47.43514 | 19.26595 | 456 ft | 9 kts | 312° |
| 2026-05-04 15:07 | 47.43562 | 19.26517 | 458 ft | 11 kts | 312° |
| 2026-05-04 15:07 | 47.43619 | 19.26425 | 457 ft | 13 kts | 312° |
| 2026-05-04 15:08 | 47.43689 | 19.26347 | 458 ft | 11 kts | 5° |
| 2026-05-04 15:08 | 47.43745 | 19.26405 | 458 ft | 10 kts | 7° |
| 2026-05-04 15:08 | 47.43810 | 19.26381 | 458 ft | 10 kts | 310° |
| 2026-05-04 15:08 | 47.43861 | 19.26298 | 458 ft | 12 kts | 313° |
| 2026-05-04 15:09 | 47.43931 | 19.26216 | 458 ft | 13 kts | 346° |
| 2026-05-04 15:09 | 47.44004 | 19.26268 | 460 ft | 12 kts | 41° |
| 2026-05-04 15:09 | 47.44052 | 19.26358 | 465 ft | 10 kts | 60° |
| 2026-05-04 15:10 | 47.44073 | 19.26488 | 471 ft | 9 kts | 91° |
| 2026-05-04 15:10 | 47.44021 | 19.26603 | 469 ft | 26 kts | 126° |
| 2026-05-04 15:10 | 47.43103 | 19.28058 | 464 ft | 163 kts | 128° |
| 2026-05-04 15:11 | 47.42345 | 19.29359 | 1040 ft | 169 kts | 132° |
| 2026-05-04 15:11 | 47.41694 | 19.30788 | 1870 ft | 171 kts | 124° |
| 2026-05-04 15:11 | 47.41054 | 19.32386 | 2404 ft | 190 kts | 127° |
| 2026-05-04 15:11 | 47.39961 | 19.33578 | 2666 ft | 209 kts | 167° |
| 2026-05-04 15:12 | 47.38466 | 19.33413 | 3026 ft | 232 kts | 206° |
| 2026-05-04 15:12 | 47.37283 | 19.31686 | 3551 ft | 254 kts | 243° |
| 2026-05-04 15:12 | 47.36976 | 19.29085 | 4389 ft | 265 kts | 269° |
| 2026-05-04 15:12 | 47.37217 | 19.26368 | 5296 ft | 270 kts | 279° |
| 2026-05-04 15:13 | 47.37649 | 19.23661 | 6248 ft | 272 kts | 282° |
| 2026-05-04 15:13 | 47.38116 | 19.20949 | 7150 ft | 274 kts | 282° |
| 2026-05-04 15:13 | 47.38558 | 19.18220 | 7967 ft | 279 kts | 281° |
| 2026-05-04 15:13 | 47.38964 | 19.15416 | 8810 ft | 283 kts | 279° |
| 2026-05-04 15:14 | 47.39343 | 19.12528 | 9663 ft | 287 kts | 278° |
| 2026-05-04 15:14 | 47.39702 | 19.09605 | 10397 ft | 296 kts | 278° |
| 2026-05-04 15:14 | 47.40068 | 19.06495 | 10679 ft | 319 kts | 278° |
| 2026-05-04 15:14 | 47.40441 | 19.03138 | 10911 ft | 342 kts | 277° |
| 2026-05-04 15:15 | 47.40813 | 18.99617 | 11416 ft | 353 kts | 277° |
| 2026-05-04 15:15 | 47.41184 | 18.96045 | 12111 ft | 358 kts | 277° |
| 2026-05-04 15:15 | 47.41561 | 18.92406 | 12853 ft | 362 kts | 277° |
| 2026-05-04 15:16 | 47.42335 | 18.84963 | 14334 ft | 370 kts | 277° |
| 2026-05-04 15:16 | 47.42726 | 18.81187 | 15033 ft | 373 kts | 277° |
| 2026-05-04 15:16 | 47.43461 | 18.73522 | 16440 ft | 380 kts | 271° |
| 2026-05-04 15:17 | 47.43232 | 18.69612 | 17116 ft | 383 kts | 261° |
| 2026-05-04 15:17 | 47.42364 | 18.61855 | 18491 ft | 389 kts | 260° |
| 2026-05-04 15:17 | 47.41908 | 18.57907 | 19094 ft | 392 kts | 260° |
| 2026-05-04 15:18 | 47.41445 | 18.53918 | 19729 ft | 395 kts | 260° |
| 2026-05-04 15:18 | 47.40980 | 18.49913 | 20347 ft | 398 kts | 260° |
| 2026-05-04 15:18 | 47.40515 | 18.45877 | 20973 ft | 401 kts | 260° |
| 2026-05-04 15:19 | 47.39575 | 18.37712 | 22166 ft | 406 kts | 260° |
| 2026-05-04 15:19 | 47.39100 | 18.33586 | 22739 ft | 409 kts | 260° |
| 2026-05-04 15:19 | 47.38140 | 18.25315 | 23806 ft | 414 kts | 260° |
| 2026-05-04 15:20 | 47.37652 | 18.21150 | 24269 ft | 416 kts | 261° |
| 2026-05-04 15:20 | 47.37153 | 18.16899 | 24713 ft | 419 kts | 261° |
| 2026-05-04 15:20 | 47.36653 | 18.12653 | 25144 ft | 422 kts | 261° |
| 2026-05-04 15:20 | 47.36146 | 18.08387 | 25581 ft | 424 kts | 261° |
| 2026-05-04 15:21 | 47.35634 | 18.04089 | 26015 ft | 427 kts | 261° |
| 2026-05-04 15:21 | 47.35115 | 17.99741 | 26450 ft | 430 kts | 261° |
| 2026-05-04 15:21 | 47.34078 | 17.91061 | 27263 ft | 436 kts | 261° |
| 2026-05-04 15:22 | 47.33549 | 17.86654 | 27669 ft | 438 kts | 261° |
| 2026-05-04 15:22 | 47.33015 | 17.82230 | 28053 ft | 441 kts | 261° |
| 2026-05-04 15:22 | 47.31928 | 17.73262 | 28824 ft | 447 kts | 261° |
| 2026-05-04 15:23 | 47.31377 | 17.68741 | 29229 ft | 450 kts | 261° |
| 2026-05-04 15:23 | 47.30819 | 17.64201 | 29599 ft | 453 kts | 261° |
| 2026-05-04 15:23 | 47.30261 | 17.59680 | 30047 ft | 453 kts | 261° |
| 2026-05-04 15:23 | 47.29688 | 17.55056 | 30526 ft | 452 kts | 261° |
| 2026-05-04 15:24 | 47.28567 | 17.46036 | 31445 ft | 450 kts | 261° |
| 2026-05-04 15:24 | 47.27441 | 17.36992 | 32380 ft | 447 kts | 261° |
| 2026-05-04 15:25 | 47.26879 | 17.32501 | 32855 ft | 445 kts | 261° |
| 2026-05-04 15:25 | 47.26320 | 17.28043 | 33314 ft | 444 kts | 261° |
| 2026-05-04 15:25 | 47.25757 | 17.23585 | 33776 ft | 443 kts | 261° |
| 2026-05-04 15:26 | 47.24634 | 17.14742 | 34584 ft | 440 kts | 261° |
| 2026-05-04 15:26 | 47.24061 | 17.10279 | 34961 ft | 439 kts | 261° |
| 2026-05-04 15:26 | 47.22939 | 17.01516 | 35709 ft | 438 kts | 261° |
| 2026-05-04 15:27 | 47.22379 | 16.97121 | 36086 ft | 437 kts | 261° |
| 2026-05-04 15:27 | 47.21257 | 16.88380 | 36834 ft | 435 kts | 261° |
| 2026-05-04 15:28 | 47.20128 | 16.79650 | 37544 ft | 433 kts | 260° |
| 2026-05-04 15:28 | 47.19561 | 16.75327 | 37877 ft | 432 kts | 260° |
| 2026-05-04 15:28 | 47.18422 | 16.66708 | 38006 ft | 431 kts | 260° |
| 2026-05-04 15:29 | 47.17851 | 16.62399 | 38002 ft | 431 kts | 260° |
| 2026-05-04 15:30 | 47.14005 | 16.32241 | 38013 ft | 429 kts | 265° |
| 2026-05-04 15:31 | 47.13157 | 16.19164 | 38012 ft | 429 kts | 265° |
| 2026-05-04 15:32 | 47.11675 | 15.97410 | 38019 ft | 429 kts | 265° |
| 2026-05-04 15:34 | 47.10166 | 15.75701 | 38005 ft | 428 kts | 264° |
| 2026-05-04 15:34 | 47.09247 | 15.62752 | 37999 ft | 428 kts | 264° |
| 2026-05-04 15:35 | 47.08301 | 15.49661 | 37997 ft | 428 kts | 264° |
| 2026-05-04 15:36 | 47.07347 | 15.36680 | 37999 ft | 427 kts | 264° |
| 2026-05-04 15:36 | 47.06703 | 15.27973 | 38002 ft | 427 kts | 264° |
| 2026-05-04 15:37 | 47.06060 | 15.19388 | 38007 ft | 427 kts | 264° |
| 2026-05-04 15:37 | 47.05401 | 15.10728 | 38012 ft | 427 kts | 264° |
| 2026-05-04 15:38 | 47.04724 | 15.03333 | 38026 ft | 426 kts | 261° |
| 2026-05-04 15:38 | 47.03984 | 14.94764 | 38027 ft | 426 kts | 264° |
| 2026-05-04 15:39 | 47.03446 | 14.86104 | 38027 ft | 426 kts | 264° |
| 2026-05-04 15:40 | 47.02500 | 14.73120 | 38028 ft | 426 kts | 263° |
| 2026-05-04 15:40 | 47.01794 | 14.64536 | 38033 ft | 425 kts | 263° |
| 2026-05-04 15:41 | 47.01077 | 14.55947 | 38032 ft | 425 kts | 263° |
| 2026-05-04 15:41 | 47.00382 | 14.47374 | 38032 ft | 425 kts | 263° |
| 2026-05-04 15:42 | 46.99680 | 14.38752 | 38031 ft | 425 kts | 263° |
| 2026-05-04 15:42 | 46.98974 | 14.30209 | 38035 ft | 424 kts | 263° |
| 2026-05-04 15:43 | 46.98251 | 14.21617 | 38036 ft | 424 kts | 262° |
| 2026-05-04 15:43 | 46.97524 | 14.13081 | 38033 ft | 424 kts | 262° |
| 2026-05-04 15:44 | 46.96792 | 14.04543 | 38036 ft | 424 kts | 263° |
| 2026-05-04 15:44 | 46.96056 | 13.95940 | 38038 ft | 424 kts | 262° |
| 2026-05-04 15:45 | 46.95318 | 13.87431 | 38043 ft | 424 kts | 262° |
| 2026-05-04 15:45 | 46.94565 | 13.78874 | 38052 ft | 424 kts | 262° |
| 2026-05-04 15:46 | 46.93810 | 13.70336 | 38052 ft | 424 kts | 262° |
| 2026-05-04 15:46 | 46.93044 | 13.61732 | 38058 ft | 424 kts | 262° |
| 2026-05-04 15:47 | 46.92280 | 13.53270 | 38059 ft | 424 kts | 262° |
| 2026-05-04 15:47 | 46.91485 | 13.44639 | 38057 ft | 424 kts | 262° |
| 2026-05-04 15:48 | 46.90705 | 13.36097 | 38061 ft | 424 kts | 262° |
| 2026-05-04 15:48 | 46.89530 | 13.23380 | 38061 ft | 424 kts | 262° |
| 2026-05-04 15:49 | 46.88732 | 13.14817 | 38070 ft | 424 kts | 262° |
| 2026-05-04 15:49 | 46.87933 | 13.06321 | 38060 ft | 425 kts | 262° |
| 2026-05-04 15:50 | 46.87124 | 12.97769 | 38074 ft | 425 kts | 262° |
| 2026-05-04 15:50 | 46.86302 | 12.89199 | 38076 ft | 425 kts | 262° |
| 2026-05-04 15:51 | 46.85472 | 12.80647 | 38084 ft | 425 kts | 262° |
| 2026-05-04 15:51 | 46.84644 | 12.72154 | 38088 ft | 425 kts | 262° |
| 2026-05-04 15:52 | 46.83799 | 12.63550 | 38102 ft | 425 kts | 262° |
| 2026-05-04 15:52 | 46.82954 | 12.55007 | 38117 ft | 425 kts | 262° |
| 2026-05-04 15:53 | 46.82108 | 12.46465 | 38136 ft | 425 kts | 262° |
| 2026-05-04 15:53 | 46.81260 | 12.37986 | 38148 ft | 424 kts | 261° |
| 2026-05-04 15:54 | 46.80282 | 12.29484 | 38164 ft | 424 kts | 255° |
| 2026-05-04 15:54 | 46.77991 | 12.21595 | 38160 ft | 424 kts | 244° |
| 2026-05-04 15:55 | 46.75316 | 12.13926 | 38160 ft | 424 kts | 244° |
| 2026-05-04 15:55 | 46.72656 | 12.06316 | 38150 ft | 424 kts | 244° |
| 2026-05-04 15:56 | 46.69989 | 11.98683 | 38131 ft | 424 kts | 244° |
| 2026-05-04 15:56 | 46.67299 | 11.91027 | 38121 ft | 423 kts | 243° |
| 2026-05-04 15:57 | 46.64612 | 11.83405 | 38104 ft | 423 kts | 243° |
| 2026-05-04 15:57 | 46.61918 | 11.75778 | 38093 ft | 424 kts | 243° |
| 2026-05-04 15:58 | 46.59241 | 11.68228 | 38070 ft | 423 kts | 243° |
| 2026-05-04 15:58 | 46.56529 | 11.60607 | 37802 ft | 422 kts | 243° |
| 2026-05-04 15:59 | 46.55188 | 11.56843 | 37518 ft | 421 kts | 243° |
| 2026-05-04 15:59 | 46.53839 | 11.53047 | 37231 ft | 421 kts | 243° |
| 2026-05-04 15:59 | 46.52499 | 11.49276 | 37013 ft | 422 kts | 243° |
| 2026-05-04 15:59 | 46.51166 | 11.45538 | 37007 ft | 421 kts | 243° |
| 2026-05-04 16:00 | 46.48450 | 11.37949 | 37003 ft | 422 kts | 243° |
| 2026-05-04 16:00 | 46.45763 | 11.30459 | 37003 ft | 421 kts | 243° |
| 2026-05-04 16:01 | 46.43134 | 11.22871 | 37002 ft | 421 kts | 244° |
| 2026-05-04 16:01 | 46.40549 | 11.15250 | 37197 ft | 421 kts | 244° |
| 2026-05-04 16:02 | 46.37969 | 11.07708 | 37194 ft | 420 kts | 244° |
| 2026-05-04 16:03 | 46.34042 | 10.96383 | 37187 ft | 420 kts | 243° |
| 2026-05-04 16:03 | 46.31407 | 10.88817 | 37170 ft | 420 kts | 243° |
| 2026-05-04 16:04 | 46.28786 | 10.81282 | 37157 ft | 419 kts | 244° |
| 2026-05-04 16:04 | 46.24889 | 10.70042 | 37137 ft | 419 kts | 244° |
| 2026-05-04 16:05 | 46.22273 | 10.62548 | 37133 ft | 419 kts | 243° |
| 2026-05-04 16:06 | 46.18335 | 10.51320 | 36883 ft | 419 kts | 243° |
| 2026-05-04 16:06 | 46.14805 | 10.41299 | 35059 ft | 425 kts | 243° |
| 2026-05-04 16:07 | 46.13012 | 10.36210 | 34014 ft | 429 kts | 243° |
| 2026-05-04 16:07 | 46.08872 | 10.24515 | 31253 ft | 441 kts | 242° |
| 2026-05-04 16:08 | 46.07476 | 10.20575 | 30261 ft | 446 kts | 241° |
| 2026-05-04 16:08 | 46.02885 | 10.08860 | 27348 ft | 448 kts | 233° |
| 2026-05-04 16:09 | 45.99256 | 10.01657 | 25958 ft | 440 kts | 233° |
| 2026-05-04 16:09 | 45.95724 | 9.94572 | 24563 ft | 432 kts | 234° |
| 2026-05-04 16:10 | 45.92267 | 9.87674 | 23150 ft | 425 kts | 234° |
| 2026-05-04 16:11 | 45.87161 | 9.77566 | 21159 ft | 407 kts | 234° |
| 2026-05-04 16:11 | 45.85508 | 9.74311 | 20560 ft | 402 kts | 234° |
| 2026-05-04 16:12 | 45.83084 | 9.63338 | 18813 ft | 393 kts | 276° |
| 2026-05-04 16:12 | 45.84691 | 9.52031 | 16971 ft | 381 kts | 260° |
| 2026-05-04 16:13 | 45.82481 | 9.45404 | 15879 ft | 370 kts | 237° |
| 2026-05-04 16:13 | 45.79423 | 9.39651 | 15054 ft | 364 kts | 225° |
| 2026-05-04 16:14 | 45.75822 | 9.34563 | 14606 ft | 356 kts | 224° |
| 2026-05-04 16:14 | 45.72439 | 9.29775 | 14304 ft | 327 kts | 224° |
| 2026-05-04 16:15 | 45.70713 | 9.27320 | 14169 ft | 306 kts | 227° |
| 2026-05-04 16:16 | 45.67946 | 9.23264 | 13134 ft | 277 kts | 224° |
| 2026-05-04 16:16 | 45.63865 | 9.17622 | 10914 ft | 267 kts | 223° |
| 2026-05-04 16:17 | 45.61263 | 9.13993 | 10744 ft | 265 kts | 223° |
| 2026-05-04 16:18 | 45.57315 | 9.08454 | 10392 ft | 274 kts | 223° |
| 2026-05-04 16:18 | 45.55946 | 9.06535 | 10267 ft | 278 kts | 223° |
| 2026-05-04 16:19 | 45.51779 | 9.00705 | 9134 ft | 278 kts | 223° |
| 2026-05-04 16:19 | 45.49088 | 8.96924 | 7675 ft | 272 kts | 223° |
| 2026-05-04 16:20 | 45.45158 | 8.91438 | 6162 ft | 239 kts | 224° |
| 2026-05-04 16:20 | 45.42922 | 8.88330 | 6055 ft | 226 kts | 224° |
| 2026-05-04 16:21 | 45.39914 | 8.83410 | 5762 ft | 214 kts | 255° |
| 2026-05-04 16:22 | 45.40888 | 8.79685 | 5305 ft | 217 kts | 326° |
| 2026-05-04 16:22 | 45.45078 | 8.78285 | 3989 ft | 190 kts | 348° |
| 2026-05-04 16:23 | 45.48612 | 8.77319 | 3315 ft | 160 kts | 348° |
| 2026-05-04 16:24 | 45.52638 | 8.76212 | 2514 ft | 143 kts | 347° |
| 2026-05-04 16:25 | 45.54581 | 8.75677 | 2131 ft | 142 kts | 348° |
| 2026-05-04 16:26 | 45.58474 | 8.74605 | 1358 ft | 143 kts | 347° |
| 2026-05-04 16:26 | 45.61399 | 8.73798 | 793 ft | 143 kts | 348° |
| 2026-05-04 16:27 | 45.62765 | 8.73418 | 738 ft | 47 kts | 349° |
| 2026-05-04 16:28 | 45.63173 | 8.73178 | 736 ft | 15 kts | 319° |
| 2026-05-04 16:28 | 45.63391 | 8.72787 | 736 ft | 20 kts | 298° |
| 2026-05-04 16:29 | 45.63315 | 8.71943 | 737 ft | 25 kts | 260° |
| 2026-05-04 16:30 | 45.63139 | 8.71695 | 736 ft | 15 kts | 168° |
| 2026-05-04 16:31 | 45.62953 | 8.71747 | 736 ft | 10 kts | 169° |
| 2026-05-04 16:31 | 45.62868 | 8.71646 | 736 ft | 0 kts | 236° |